Time;durP1;ratioP1;P1;durP2;ratioP2;P2;SDS_P1;SDS_P2;PMS_P1;PMS_P2;Temp;Humidity;BMP_temperature;BMP_pressure;BME280_temperature;BME280_humidity;BME280_pressure;Samples;Min_cycle;Max_cycle;Signal;HPM_P1;HPM_P2
2021/12/18 00:00:02;;;;;;;12.80;7.50;;;;;;;;;;5131683;27;20023;-74
2021/12/18 00:02:28;;;;;;;13.35;7.57;;;;;;;;;;5131470;27;20035;-73
2021/12/18 00:04:55;;;;;;;13.98;8.05;;;;;;;;;;5131162;27;20396;-74
2021/12/18 00:07:21;;;;;;;15.35;8.68;;;;;;;;;;5133359;27;20027;-74
2021/12/18 00:09:48;;;;;;;15.77;8.07;;;;;;;;;;5116912;27;20377;-74
2021/12/18 00:12:15;;;;;;;14.02;7.63;;;;;;;;;;5133567;27;20607;-73
2021/12/18 00:14:41;;;;;;;13.80;7.68;;;;;;;;;;5131627;27;20031;-74
2021/12/18 00:17:07;;;;;;;21.80;6.72;;;;;;;;;;5131477;27;20046;-74
2021/12/18 00:19:34;;;;;;;12.75;7.50;;;;;;;;;;5131119;27;20076;-74
2021/12/18 00:22:00;;;;;;;15.27;7.80;;;;;;;;;;5134075;27;20034;-74
2021/12/18 00:24:26;;;;;;;13.93;7.57;;;;;;;;;;5132331;27;20469;-74
2021/12/18 00:26:53;;;;;;;18.05;9.10;;;;;;;;;;5131412;27;20027;-74
2021/12/18 00:29:20;;;;;;;15.13;7.50;;;;;;;;;;5130560;27;20067;-74
2021/12/18 00:31:46;;;;;;;14.02;6.70;;;;;;;;;;5130788;27;20035;-73
2021/12/18 00:34:13;;;;;;;10.93;6.53;;;;;;;;;;5131767;27;20494;-74
2021/12/18 00:36:39;;;;;;;12.55;6.78;;;;;;;;;;5134162;27;20049;-74
2021/12/18 00:39:06;;;;;;;12.63;6.40;;;;;;;;;;5131158;27;20027;-74
2021/12/18 00:44:03;;;;;;;15.30;7.65;;;;;;;;;;5130697;27;20047;-74
2021/12/18 00:46:34;;;;;;;14.70;8.10;;;;;;;;;;5132367;27;20031;-74
2021/12/18 00:49:01;;;;;;;19.67;8.18;;;;;;;;;;5133509;27;20026;-73
2021/12/18 00:51:27;;;;;;;15.70;7.85;;;;;;;;;;5131896;27;20412;-74
2021/12/18 00:53:54;;;;;;;14.88;7.20;;;;;;;;;;5130769;27;20477;-74
2021/12/18 00:56:21;;;;;;;13.05;6.97;;;;;;;;;;5131023;27;20031;-74
2021/12/18 00:58:49;;;;;;;12.45;6.60;;;;;;;;;;5130733;27;20030;-73
2021/12/18 01:01:16;;;;;;;12.00;6.40;;;;;;;;;;5132329;27;20037;-74
2021/12/18 01:03:43;;;;;;;10.60;6.05;;;;;;;;;;5134010;27;20366;-73
2021/12/18 01:06:10;;;;;;;11.40;5.97;;;;;;;;;;5130720;27;20033;-74
2021/12/18 01:08:37;;;;;;;11.20;6.63;;;;;;;;;;5130261;27;20481;-74
2021/12/18 01:13:42;;;;;;;11.27;6.03;;;;;;;;;;5112021;27;20031;-74
2021/12/18 01:16:17;;;;;;;9.88;4.95;;;;;;;;;;5131708;27;20144;-74
2021/12/18 01:24:29;;;;;;;10.45;5.80;;;;;;;;;;5052442;28;20059;-74
2021/12/18 01:26:56;;;;;;;10.70;5.80;;;;;;;;;;5054064;28;20024;-74
2021/12/18 01:29:22;;;;;;;13.20;6.35;;;;;;;;;;5053902;28;20047;-74
2021/12/18 01:31:48;;;;;;;10.93;6.05;;;;;;;;;;5053476;28;20028;-74
2021/12/18 01:34:15;;;;;;;8.95;5.22;;;;;;;;;;5049786;28;20023;-74
2021/12/18 01:36:41;;;;;;;11.25;5.55;;;;;;;;;;5054341;28;20045;-74
2021/12/18 01:39:07;;;;;;;8.07;4.97;;;;;;;;;;5053748;28;20074;-74
2021/12/18 01:41:50;;;;;;;12.80;5.65;;;;;;;;;;5053594;28;20037;-74
2021/12/18 01:52:32;;;;;;;13.32;5.65;;;;;;;;;;5049569;28;20043;-74
2021/12/18 01:54:58;;;;;;;13.25;6.68;;;;;;;;;;5076247;27;20034;-74
2021/12/18 01:57:24;;;;;;;11.65;6.07;;;;;;;;;;5130975;27;20514;-74
2021/12/18 01:59:51;;;;;;;12.32;5.63;;;;;;;;;;5128975;27;20028;-74
2021/12/18 02:02:18;;;;;;;10.23;5.40;;;;;;;;;;5129817;27;20027;-74
2021/12/18 02:04:44;;;;;;;8.77;4.50;;;;;;;;;;5131022;27;20019;-74
2021/12/18 02:07:11;;;;;;;11.98;4.47;;;;;;;;;;5130689;27;20031;-74
2021/12/18 02:10:00;;;;;;;9.15;4.65;;;;;;;;;;5132361;27;20021;-74
2021/12/18 02:12:36;;;;;;;8.77;4.68;;;;;;;;;;5132789;27;20079;-73
2021/12/18 02:23:01;;;;;;;11.43;5.30;;;;;;;;;;5129299;28;20396;-74
2021/12/18 02:25:30;;;;;;;10.65;4.82;;;;;;;;;;5129481;28;20400;-74
2021/12/18 02:27:57;;;;;;;11.27;5.00;;;;;;;;;;5131875;28;20027;-74
2021/12/18 02:30:24;;;;;;;8.55;4.88;;;;;;;;;;5130326;28;20027;-73
2021/12/18 02:32:52;;;;;;;9.82;5.53;;;;;;;;;;5129338;28;20030;-74
2021/12/18 02:35:28;;;;;;;7.30;4.43;;;;;;;;;;5128934;28;20011;-73
2021/12/18 02:38:08;;;;;;;10.85;4.50;;;;;;;;;;5129233;28;20023;-73
2021/12/18 02:40:52;;;;;;;10.55;5.10;;;;;;;;;;5129088;28;20023;-73
2021/12/18 02:43:20;;;;;;;8.90;4.65;;;;;;;;;;5114072;28;20028;-74
2021/12/18 02:45:46;;;;;;;9.52;4.68;;;;;;;;;;5132598;28;20035;-73
2021/12/18 02:48:12;;;;;;;8.73;4.53;;;;;;;;;;5129550;28;20033;-74
2021/12/18 02:50:40;;;;;;;8.75;4.70;;;;;;;;;;5129240;27;20012;-74
2021/12/18 02:53:07;;;;;;;8.07;4.50;;;;;;;;;;5129890;27;20027;-74
2021/12/18 02:55:33;;;;;;;6.55;3.70;;;;;;;;;;5133168;27;20489;-74
2021/12/18 02:57:59;;;;;;;7.15;4.47;;;;;;;;;;5116721;27;20057;-74
2021/12/18 03:00:27;;;;;;;6.57;4.20;;;;;;;;;;5133922;27;20039;-74
2021/12/18 03:02:54;;;;;;;7.82;3.88;;;;;;;;;;5132976;27;20020;-73
2021/12/18 03:05:34;;;;;;;6.35;4.13;;;;;;;;;;5133061;27;20035;-74
2021/12/18 03:08:09;;;;;;;6.47;3.70;;;;;;;;;;5132789;27;20507;-74
2021/12/18 03:19:24;;;;;;;9.55;4.32;;;;;;;;;;5113776;27;20035;-73
2021/12/18 03:24:33;;;;;;;6.35;3.75;;;;;;;;;;5133828;27;20027;-73
2021/12/18 03:27:00;;;;;;;5.18;3.38;;;;;;;;;;5132214;27;20027;-73
2021/12/18 03:29:26;;;;;;;7.20;3.53;;;;;;;;;;5132674;27;20023;-74
2021/12/18 03:31:56;;;;;;;6.03;3.63;;;;;;;;;;5132445;27;20023;-73
2021/12/18 03:34:22;;;;;;;4.88;3.58;;;;;;;;;;5132053;27;20035;-73
2021/12/18 03:36:51;;;;;;;6.40;3.53;;;;;;;;;;5135397;27;20536;-74
2021/12/18 03:39:17;;;;;;;5.93;3.85;;;;;;;;;;5133267;27;20023;-74
2021/12/18 03:41:44;;;;;;;6.72;3.80;;;;;;;;;;5131705;27;20031;-73
2021/12/18 03:44:11;;;;;;;4.57;3.38;;;;;;;;;;5132197;27;20103;-74
2021/12/18 03:46:42;;;;;;;4.95;3.20;;;;;;;;;;5132081;27;20034;-74
2021/12/18 03:49:08;;;;;;;6.65;3.60;;;;;;;;;;5133314;27;20019;-73
2021/12/18 03:51:35;;;;;;;5.22;3.30;;;;;;;;;;5134494;27;20033;-74
2021/12/18 03:54:02;;;;;;;6.65;4.03;;;;;;;;;;5131859;27;20038;-73
2021/12/18 03:56:29;;;;;;;9.02;3.88;;;;;;;;;;5131516;27;20025;-74
2021/12/18 03:58:55;;;;;;;7.30;3.45;;;;;;;;;;5113816;27;20031;-74
2021/12/18 04:01:21;;;;;;;5.45;3.67;;;;;;;;;;5133168;27;20389;-74
2021/12/18 04:03:48;;;;;;;6.10;3.47;;;;;;;;;;5134855;27;20487;-73
2021/12/18 04:06:14;;;;;;;4.80;3.22;;;;;;;;;;5133938;27;20040;-74
2021/12/18 04:08:41;;;;;;;7.03;3.35;;;;;;;;;;5131844;27;20011;-74
2021/12/18 04:11:07;;;;;;;6.22;3.20;;;;;;;;;;5131239;27;20037;-74
2021/12/18 04:13:34;;;;;;;4.03;3.00;;;;;;;;;;5133231;27;20481;-74
2021/12/18 04:16:00;;;;;;;4.43;3.10;;;;;;;;;;5133817;27;20049;-74
2021/12/18 04:18:26;;;;;;;5.80;3.22;;;;;;;;;;5132559;27;20015;-74
2021/12/18 04:20:53;;;;;;;5.45;3.53;;;;;;;;;;5112793;27;20023;-74
2021/12/18 04:23:19;;;;;;;5.35;3.58;;;;;;;;;;5131349;27;20025;-74
2021/12/18 04:25:46;;;;;;;5.97;3.50;;;;;;;;;;5131087;27;20484;-74
2021/12/18 04:28:12;;;;;;;5.68;3.17;;;;;;;;;;5132312;27;20436;-73
2021/12/18 04:30:38;;;;;;;5.63;2.97;;;;;;;;;;5133816;27;20019;-74
2021/12/18 04:33:05;;;;;;;4.90;3.45;;;;;;;;;;5130989;27;20033;-73
2021/12/18 04:35:31;;;;;;;5.38;3.22;;;;;;;;;;5131097;27;20029;-74
2021/12/18 04:37:57;;;;;;;5.70;3.60;;;;;;;;;;5112632;27;20023;-74
2021/12/18 04:40:26;;;;;;;5.07;3.22;;;;;;;;;;5113778;27;20031;-74
2021/12/18 04:42:53;;;;;;;4.55;3.28;;;;;;;;;;5115538;27;20015;-74
2021/12/18 04:45:20;;;;;;;5.75;3.50;;;;;;;;;;5133165;27;20383;-74
2021/12/18 04:47:46;;;;;;;6.68;3.17;;;;;;;;;;5131191;27;20442;-73
2021/12/18 04:50:12;;;;;;;7.57;3.55;;;;;;;;;;5130913;27;20018;-74
2021/12/18 04:52:39;;;;;;;5.88;3.30;;;;;;;;;;5130810;27;20045;-74
2021/12/18 04:55:06;;;;;;;7.13;3.05;;;;;;;;;;5132127;27;20019;-74
2021/12/18 04:57:32;;;;;;;4.32;2.88;;;;;;;;;;5134340;27;20031;-74
2021/12/18 04:59:59;;;;;;;4.45;2.90;;;;;;;;;;5130548;27;20018;-74
2021/12/18 05:02:36;;;;;;;5.38;2.85;;;;;;;;;;5130476;27;20370;-74
2021/12/18 05:05:03;;;;;;;6.97;3.28;;;;;;;;;;5130543;27;20023;-74
2021/12/18 05:07:30;;;;;;;4.97;3.20;;;;;;;;;;5130622;27;20034;-74
2021/12/18 05:09:56;;;;;;;5.47;3.33;;;;;;;;;;5132899;27;20023;-74
2021/12/18 05:12:22;;;;;;;5.38;3.10;;;;;;;;;;5131784;27;20022;-74
2021/12/18 05:14:49;;;;;;;4.57;2.80;;;;;;;;;;5130623;27;20056;-74
2021/12/18 05:17:15;;;;;;;4.72;3.13;;;;;;;;;;5111420;27;20035;-74
2021/12/18 05:19:42;;;;;;;5.13;3.30;;;;;;;;;;5131787;27;20016;-74
2021/12/18 05:22:09;;;;;;;4.40;2.65;;;;;;;;;;5131315;27;20053;-74
2021/12/18 05:24:35;;;;;;;4.03;2.55;;;;;;;;;;5132272;27;20514;-74
2021/12/18 05:27:02;;;;;;;5.75;2.80;;;;;;;;;;5130184;27;20023;-74
2021/12/18 05:29:28;;;;;;;4.78;2.80;;;;;;;;;;5130410;27;20023;-74
2021/12/18 05:31:54;;;;;;;4.28;2.78;;;;;;;;;;5130156;27;20023;-74
2021/12/18 05:34:23;;;;;;;4.90;3.00;;;;;;;;;;5130304;27;20030;-74
2021/12/18 05:39:24;;;;;;;6.30;3.05;;;;;;;;;;5131217;27;20035;-74
2021/12/18 05:41:51;;;;;;;6.60;3.10;;;;;;;;;;5129964;27;20385;-74
2021/12/18 05:44:18;;;;;;;6.22;3.35;;;;;;;;;;5129487;27;20057;-74
2021/12/18 05:46:45;;;;;;;4.93;3.00;;;;;;;;;;5130176;27;20030;-74
2021/12/18 05:49:12;;;;;;;3.85;3.00;;;;;;;;;;5130935;27;20027;-73
2021/12/18 05:51:38;;;;;;;5.10;3.08;;;;;;;;;;5131948;27;20047;-74
2021/12/18 05:54:05;;;;;;;5.75;3.20;;;;;;;;;;5129670;27;20034;-74
2021/12/18 05:56:32;;;;;;;4.53;2.85;;;;;;;;;;5111375;27;20408;-73
2021/12/18 05:58:59;;;;;;;4.28;2.75;;;;;;;;;;5131063;27;20023;-74
2021/12/18 06:01:26;;;;;;;4.78;2.92;;;;;;;;;;5129788;27;20548;-74
2021/12/18 06:03:53;;;;;;;9.45;3.63;;;;;;;;;;5132637;27;20023;-73
2021/12/18 06:06:21;;;;;;;4.85;3.38;;;;;;;;;;5130183;27;20053;-74
2021/12/18 06:08:48;;;;;;;5.25;2.55;;;;;;;;;;5129347;27;20067;-74
2021/12/18 06:11:16;;;;;;;5.18;3.17;;;;;;;;;;5129478;27;20075;-73
2021/12/18 06:13:47;;;;;;;6.28;2.95;;;;;;;;;;5129647;27;20031;-74
2021/12/18 06:16:13;;;;;;;4.55;2.83;;;;;;;;;;5130224;27;20030;-73
2021/12/18 06:18:40;;;;;;;4.18;2.92;;;;;;;;;;5132438;27;20027;-74
2021/12/18 06:21:09;;;;;;;7.25;3.47;;;;;;;;;;5129101;28;20031;-74
2021/12/18 06:23:35;;;;;;;6.45;3.40;;;;;;;;;;5111136;28;20027;-74
2021/12/18 06:26:02;;;;;;;6.40;3.60;;;;;;;;;;5129324;28;20377;-74
2021/12/18 06:28:28;;;;;;;7.38;3.60;;;;;;;;;;5130680;27;20019;-74
2021/12/18 06:30:55;;;;;;;7.90;4.75;;;;;;;;;;5136228;27;20388;-74
2021/12/18 06:33:21;;;;;;;11.95;5.60;;;;;;;;;;5135922;27;20035;-74
2021/12/18 06:35:47;;;;;;;10.57;5.78;;;;;;;;;;5133073;27;20018;-73
2021/12/18 06:38:14;;;;;;;11.75;5.32;;;;;;;;;;5134886;27;20280;-74
2021/12/18 06:40:40;;;;;;;7.95;3.90;;;;;;;;;;5133398;27;20035;-74
2021/12/18 06:43:08;;;;;;;8.00;4.20;;;;;;;;;;5134834;27;20053;-74
2021/12/18 06:45:35;;;;;;;9.25;4.68;;;;;;;;;;5135628;27;20230;-74
2021/12/18 06:48:01;;;;;;;10.73;4.90;;;;;;;;;;5133248;27;20027;-74
2021/12/18 06:50:28;;;;;;;11.52;4.93;;;;;;;;;;5132833;27;20023;-73
2021/12/18 06:52:54;;;;;;;8.20;4.90;;;;;;;;;;5133190;27;20015;-74
2021/12/18 06:55:20;;;;;;;11.30;6.15;;;;;;;;;;5114998;27;20026;-74
2021/12/18 06:57:47;;;;;;;18.77;9.55;;;;;;;;;;5136460;27;20037;-74
2021/12/18 07:00:14;;;;;;;18.42;9.35;;;;;;;;;;5133307;27;20020;-74
2021/12/18 07:02:41;;;;;;;35.47;18.15;;;;;;;;;;5132854;27;20095;-74
2021/12/18 07:05:08;;;;;;;20.80;10.90;;;;;;;;;;5132463;27;20476;-74
2021/12/18 07:07:35;;;;;;;19.08;9.45;;;;;;;;;;5133057;27;20024;-74
2021/12/18 07:10:01;;;;;;;17.10;8.70;;;;;;;;;;5135135;27;20027;-74
2021/12/18 07:12:28;;;;;;;25.90;12.82;;;;;;;;;;5133850;27;20027;-73
2021/12/18 07:14:54;;;;;;;20.13;9.63;;;;;;;;;;5132729;27;20019;-74
2021/12/18 07:17:20;;;;;;;29.15;10.18;;;;;;;;;;5115695;27;20025;-73
2021/12/18 07:19:47;;;;;;;24.95;10.77;;;;;;;;;;5134141;27;20019;-73
2021/12/18 07:22:13;;;;;;;22.60;11.57;;;;;;;;;;5133721;27;20032;-73
2021/12/18 07:24:39;;;;;;;24.45;11.32;;;;;;;;;;5135306;27;20041;-73
2021/12/18 07:27:06;;;;;;;25.20;11.70;;;;;;;;;;5114204;27;20023;-73
2021/12/18 07:29:33;;;;;;;17.70;9.00;;;;;;;;;;5132773;27;20027;-73
2021/12/18 07:31:59;;;;;;;17.10;9.23;;;;;;;;;;5132637;27;20023;-73
2021/12/18 07:34:26;;;;;;;14.30;7.68;;;;;;;;;;5132344;27;20023;-73
2021/12/18 07:36:52;;;;;;;16.42;7.65;;;;;;;;;;5135433;27;20027;-73
2021/12/18 07:39:18;;;;;;;21.00;7.80;;;;;;;;;;5132714;27;20084;-73
2021/12/18 07:41:45;;;;;;;19.70;7.78;;;;;;;;;;5132094;27;20027;-74
2021/12/18 07:44:12;;;;;;;14.63;7.50;;;;;;;;;;5132206;27;20039;-73
2021/12/18 07:46:39;;;;;;;17.48;8.05;;;;;;;;;;5132178;27;20489;-73
2021/12/18 07:49:08;;;;;;;10.82;5.97;;;;;;;;;;5133744;27;20031;-74
2021/12/18 07:51:35;;;;;;;19.67;8.95;;;;;;;;;;5134259;27;20489;-73
2021/12/18 07:54:02;;;;;;;19.85;9.52;;;;;;;;;;5131759;27;20015;-73
2021/12/18 07:56:28;;;;;;;22.40;11.27;;;;;;;;;;5133329;27;20392;-73
2021/12/18 07:58:54;;;;;;;16.08;9.20;;;;;;;;;;5131901;27;20015;-73
2021/12/18 08:01:21;;;;;;;19.83;9.45;;;;;;;;;;5131968;27;20039;-73
2021/12/18 08:03:48;;;;;;;13.82;6.68;;;;;;;;;;5134911;27;20027;-74
2021/12/18 08:06:15;;;;;;;19.92;10.02;;;;;;;;;;5133566;27;20042;-73
2021/12/18 08:08:41;;;;;;;11.80;6.43;;;;;;;;;;5131772;27;20048;-73
2021/12/18 08:11:08;;;;;;;21.33;11.60;;;;;;;;;;5131575;27;20060;-74
2021/12/18 08:13:34;;;;;;;14.13;7.50;;;;;;;;;;5131614;27;20016;-73
2021/12/18 08:16:00;;;;;;;15.38;9.50;;;;;;;;;;5134171;27;20041;-73
2021/12/18 08:18:27;;;;;;;20.63;12.27;;;;;;;;;;5132139;27;20384;-73
2021/12/18 08:20:53;;;;;;;19.20;11.25;;;;;;;;;;5131617;27;20083;-73
2021/12/18 08:23:19;;;;;;;22.10;12.45;;;;;;;;;;5131182;27;20027;-73
2021/12/18 08:25:46;;;;;;;23.77;13.73;;;;;;;;;;5131358;27;20400;-73
2021/12/18 08:28:12;;;;;;;16.23;9.82;;;;;;;;;;5132766;27;20020;-73
2021/12/18 08:30:39;;;;;;;12.50;7.00;;;;;;;;;;5133405;27;20023;-73
2021/12/18 08:33:06;;;;;;;14.40;8.18;;;;;;;;;;5131061;27;20408;-73
2021/12/18 08:35:32;;;;;;;11.90;7.82;;;;;;;;;;5132512;27;20038;-73
2021/12/18 08:37:59;;;;;;;14.50;9.32;;;;;;;;;;5130971;27;20027;-73
2021/12/18 08:40:26;;;;;;;10.32;7.18;;;;;;;;;;5131543;27;20028;-73
2021/12/18 08:42:53;;;;;;;12.23;6.47;;;;;;;;;;5133760;27;20027;-72
2021/12/18 08:45:20;;;;;;;8.48;5.78;;;;;;;;;;5114318;27;20035;-73
2021/12/18 08:47:46;;;;;;;8.63;5.68;;;;;;;;;;5130890;27;20116;-73
2021/12/18 08:50:16;;;;;;;7.53;5.10;;;;;;;;;;5130586;27;20015;-73
2021/12/18 08:52:42;;;;;;;7.97;4.72;;;;;;;;;;5130275;27;20200;-73
2021/12/18 08:55:09;;;;;;;8.95;5.28;;;;;;;;;;5132316;27;20035;-73
2021/12/18 08:57:35;;;;;;;10.93;6.57;;;;;;;;;;5114600;27;20045;-73
2021/12/18 09:00:03;;;;;;;8.18;5.70;;;;;;;;;;5130343;27;20370;-73
2021/12/18 09:02:29;;;;;;;10.75;5.53;;;;;;;;;;5130607;27;20019;-73
2021/12/18 09:04:56;;;;;;;12.48;6.80;;;;;;;;;;5130493;27;20029;-73
2021/12/18 09:07:25;;;;;;;10.57;6.78;;;;;;;;;;5130598;27;20014;-73
2021/12/18 09:09:51;;;;;;;7.72;5.10;;;;;;;;;;5133726;27;20019;-73
2021/12/18 09:12:17;;;;;;;8.52;5.63;;;;;;;;;;5131039;27;20049;-73
2021/12/18 09:14:44;;;;;;;9.88;6.30;;;;;;;;;;5131457;27;20023;-73
2021/12/18 09:17:10;;;;;;;14.80;6.05;;;;;;;;;;5130394;27;20031;-73
2021/12/18 09:19:37;;;;;;;6.18;4.97;;;;;;;;;;5130806;27;20064;-73
2021/12/18 09:22:06;;;;;;;5.80;4.07;;;;;;;;;;5132671;27;20091;-72
2021/12/18 09:24:32;;;;;;;5.70;3.97;;;;;;;;;;5131949;27;20027;-73
2021/12/18 09:26:59;;;;;;;6.85;4.03;;;;;;;;;;5111637;27;20023;-73
2021/12/18 09:29:25;;;;;;;9.55;5.60;;;;;;;;;;5129826;27;20027;-73
2021/12/18 09:31:52;;;;;;;12.88;7.03;;;;;;;;;;5130362;27;20023;-73
2021/12/18 09:34:18;;;;;;;15.57;9.07;;;;;;;;;;5130304;27;20020;-73
2021/12/18 09:36:44;;;;;;;16.38;7.13;;;;;;;;;;5133423;27;20029;-73
2021/12/18 09:39:13;;;;;;;9.10;6.43;;;;;;;;;;5129900;27;20016;-74
2021/12/18 09:41:40;;;;;;;9.57;5.00;;;;;;;;;;5129713;27;20039;-73
2021/12/18 09:44:06;;;;;;;8.00;4.55;;;;;;;;;;5110910;27;20039;-73
2021/12/18 09:46:33;;;;;;;6.97;4.72;;;;;;;;;;5129726;27;20028;-73
2021/12/18 09:49:00;;;;;;;12.07;4.38;;;;;;;;;;5113682;27;20033;-73
2021/12/18 09:51:28;;;;;;;6.45;4.20;;;;;;;;;;5130643;27;20043;-72
2021/12/18 09:53:58;;;;;;;4.40;3.97;;;;;;;;;;5130976;27;20022;-73
2021/12/18 09:56:25;;;;;;;5.63;3.92;;;;;;;;;;5129571;27;20392;-73
2021/12/18 09:58:51;;;;;;;5.95;4.40;;;;;;;;;;5111354;27;20019;-73
2021/12/18 10:01:18;;;;;;;7.43;4.50;;;;;;;;;;5113510;27;20556;-73
2021/12/18 10:03:57;;;;;;;10.48;6.50;;;;;;;;;;5132707;27;20038;-73
2021/12/18 10:06:35;;;;;;;8.73;5.95;;;;;;;;;;5131983;27;20031;-73
2021/12/18 10:09:02;;;;;;;7.28;4.88;;;;;;;;;;5129416;27;20023;-73
2021/12/18 10:11:29;;;;;;;8.70;5.65;;;;;;;;;;5129496;27;20029;-73
2021/12/18 10:13:56;;;;;;;8.32;5.40;;;;;;;;;;5129020;27;20015;-73
2021/12/18 10:16:24;;;;;;;9.32;4.90;;;;;;;;;;5129294;27;20027;-73
2021/12/18 10:18:50;;;;;;;6.72;3.92;;;;;;;;;;5132647;27;20019;-73
2021/12/18 10:21:21;;;;;;;4.55;3.53;;;;;;;;;;5129690;27;20035;-73
2021/12/18 10:23:48;;;;;;;10.43;3.92;;;;;;;;;;5129123;27;20465;-73
2021/12/18 10:26:34;;;;;;;5.65;3.72;;;;;;;;;;5129272;28;20031;-73
2021/12/18 10:29:01;;;;;;;6.25;3.70;;;;;;;;;;5129251;28;20031;-73
2021/12/18 10:31:41;;;;;;;4.70;3.67;;;;;;;;;;5130680;28;20080;-73
2021/12/18 10:34:16;;;;;;;4.93;4.00;;;;;;;;;;5130990;28;20023;-73
2021/12/18 10:36:42;;;;;;;8.15;4.30;;;;;;;;;;5113975;28;20443;-73
2021/12/18 10:39:18;;;;;;;8.25;4.88;;;;;;;;;;5129246;27;20023;-71
2021/12/18 10:41:44;;;;;;;9.77;4.70;;;;;;;;;;5128690;28;20031;-73
2021/12/18 10:44:12;;;;;;;8.13;5.15;;;;;;;;;;5128939;28;20092;-73
2021/12/18 10:46:39;;;;;;;11.43;6.13;;;;;;;;;;5129047;28;20028;-73
2021/12/18 10:49:06;;;;;;;9.35;6.20;;;;;;;;;;5131475;28;20034;-72
2021/12/18 10:51:33;;;;;;;8.68;5.00;;;;;;;;;;5130728;28;20030;-71
2021/12/18 10:54:01;;;;;;;10.75;7.95;;;;;;;;;;5128934;28;20022;-72
2021/12/18 10:56:38;;;;;;;6.50;4.85;;;;;;;;;;5128654;28;20021;-74
2021/12/18 10:59:06;;;;;;;7.25;5.07;;;;;;;;;;5129041;28;20027;-70
2021/12/18 11:01:34;;;;;;;9.30;5.35;;;;;;;;;;5129302;28;20068;-73
2021/12/18 11:04:01;;;;;;;8.07;4.72;;;;;;;;;;5131326;28;20031;-73
2021/12/18 11:06:35;;;;;;;9.30;5.60;;;;;;;;;;5111739;28;20179;-73
2021/12/18 11:09:04;;;;;;;8.40;5.22;;;;;;;;;;5128666;28;20022;-73
2021/12/18 11:14:36;;;;;;;7.43;5.20;;;;;;;;;;5130124;27;20023;-71
2021/12/18 11:17:04;;;;;;;8.15;5.32;;;;;;;;;;5133073;27;20019;-73
2021/12/18 11:19:32;;;;;;;15.68;5.32;;;;;;;;;;5132879;27;20020;-73
2021/12/18 11:22:00;;;;;;;5.50;4.40;;;;;;;;;;5134781;27;20039;-73
2021/12/18 11:24:30;;;;;;;5.50;4.20;;;;;;;;;;5133653;27;20027;-73
2021/12/18 11:26:58;;;;;;;6.75;4.40;;;;;;;;;;5131928;27;20029;-73
2021/12/18 11:29:28;;;;;;;7.72;5.10;;;;;;;;;;5132716;27;20027;-73
2021/12/18 11:31:55;;;;;;;8.13;5.70;;;;;;;;;;5132285;27;20481;-73
2021/12/18 11:34:21;;;;;;;12.02;6.82;;;;;;;;;;5132498;27;20031;-73
2021/12/18 11:36:49;;;;;;;12.57;7.22;;;;;;;;;;5135821;27;20018;-73
2021/12/18 11:39:17;;;;;;;12.13;6.00;;;;;;;;;;5133706;27;20041;-73
2021/12/18 11:41:47;;;;;;;9.18;5.57;;;;;;;;;;5132213;27;20035;-73
2021/12/18 11:44:25;;;;;;;10.73;6.85;;;;;;;;;;5132113;27;20051;-73
2021/12/18 11:46:51;;;;;;;16.70;7.43;;;;;;;;;;5132396;27;20028;-73
2021/12/18 11:49:19;;;;;;;9.60;6.50;;;;;;;;;;5117168;27;20026;-73
2021/12/18 11:51:58;;;;;;;12.73;6.40;;;;;;;;;;5135667;27;20030;-73
2021/12/18 11:54:42;;;;;;;12.48;6.03;;;;;;;;;;5134114;27;20389;-73
2021/12/18 11:57:09;;;;;;;8.90;6.13;;;;;;;;;;5113503;27;20404;-73
2021/12/18 11:59:40;;;;;;;12.07;5.35;;;;;;;;;;5132221;27;20019;-73
2021/12/18 12:02:06;;;;;;;;;;;;;;;;;;5132206;27;20504;-73
2021/12/18 12:04:51;;;;;;;8.07;4.93;;;;;;;;;;5132129;27;19911;-73
2021/12/18 12:07:19;;;;;;;7.57;3.92;;;;;;;;;;5115904;27;20016;-73
2021/12/18 12:10:06;;;;;;;5.80;4.18;;;;;;;;;;5134876;27;20095;-73
2021/12/18 12:12:52;;;;;;;7.30;4.35;;;;;;;;;;5133517;27;20015;-73
2021/12/18 12:15:19;;;;;;;5.80;4.07;;;;;;;;;;5131936;27;20033;-73
2021/12/18 12:18:02;;;;;;;5.55;3.85;;;;;;;;;;5113011;27;20019;-73
2021/12/18 12:20:42;;;;;;;6.40;3.92;;;;;;;;;;5131466;27;20034;-73
2021/12/18 12:23:10;;;;;;;5.43;3.80;;;;;;;;;;5130914;27;20035;-73
2021/12/18 12:25:41;;;;;;;7.20;3.75;;;;;;;;;;5130431;27;20497;-73
2021/12/18 12:28:07;;;;;;;5.20;4.22;;;;;;;;;;5133079;27;20023;-73
2021/12/18 12:30:38;;;;;;;5.63;4.28;;;;;;;;;;5134923;27;20035;-73
2021/12/18 12:33:06;;;;;;;7.47;4.07;;;;;;;;;;5131473;27;20038;-73
2021/12/18 12:35:52;;;;;;;6.43;4.25;;;;;;;;;;5131568;27;20015;-73
2021/12/18 12:38:22;;;;;;;4.80;3.85;;;;;;;;;;5130682;27;20366;-73
2021/12/18 12:40:49;;;;;;;6.13;4.53;;;;;;;;;;5131190;27;20026;-73
2021/12/18 12:43:25;;;;;;;5.90;4.07;;;;;;;;;;5113340;27;20035;-73
2021/12/18 12:45:53;;;;;;;5.85;4.32;;;;;;;;;;5130474;27;20031;-72
2021/12/18 12:48:20;;;;;;;6.18;4.40;;;;;;;;;;5131244;27;20029;-72
2021/12/18 12:50:54;;;;;;;8.98;4.07;;;;;;;;;;5131088;27;20027;-73
2021/12/18 12:53:22;;;;;;;6.28;4.40;;;;;;;;;;5130606;27;20020;-73
2021/12/18 12:55:49;;;;;;;6.35;4.32;;;;;;;;;;5130859;27;20019;-73
2021/12/18 12:58:18;;;;;;;7.07;4.45;;;;;;;;;;5131567;27;20027;-73
2021/12/18 13:00:46;;;;;;;9.02;4.18;;;;;;;;;;5134020;27;20023;-73
2021/12/18 13:03:14;;;;;;;7.30;4.82;;;;;;;;;;5130410;27;20031;-73
2021/12/18 13:05:47;;;;;;;5.95;4.40;;;;;;;;;;5130542;27;20034;-73
2021/12/18 13:08:13;;;;;;;5.60;4.32;;;;;;;;;;5131999;27;20027;-73
2021/12/18 13:10:41;;;;;;;6.50;4.75;;;;;;;;;;5130490;27;20481;-73
2021/12/18 13:13:14;;;;;;;8.30;4.10;;;;;;;;;;5132439;27;20027;-73
2021/12/18 13:15:53;;;;;;;6.25;4.30;;;;;;;;;;5133110;27;20038;-73
2021/12/18 13:18:21;;;;;;;11.65;4.68;;;;;;;;;;5131288;27;20023;-73
2021/12/18 13:20:55;;;;;;;8.38;4.55;;;;;;;;;;5111679;27;20308;-73
2021/12/18 13:23:22;;;;;;;6.38;4.25;;;;;;;;;;5130241;27;20029;-73
2021/12/18 13:25:50;;;;;;;7.03;4.07;;;;;;;;;;5130200;27;20025;-73
2021/12/18 13:28:17;;;;;;;8.50;5.28;;;;;;;;;;5131036;27;20033;-72
2021/12/18 13:30:47;;;;;;;7.32;5.28;;;;;;;;;;5133666;27;20027;-73
2021/12/18 13:33:13;;;;;;;7.28;5.13;;;;;;;;;;5129855;27;20375;-73
2021/12/18 13:35:40;;;;;;;7.43;4.65;;;;;;;;;;5129723;27;20400;-73
2021/12/18 13:38:11;;;;;;;6.68;4.63;;;;;;;;;;5129786;27;20031;-72
2021/12/18 13:40:45;;;;;;;6.88;4.93;;;;;;;;;;5130041;27;20036;-72
2021/12/18 13:43:16;;;;;;;7.32;3.95;;;;;;;;;;5130928;27;20041;-73
2021/12/18 13:46:05;;;;;;;5.55;4.13;;;;;;;;;;5132995;27;20037;-73
2021/12/18 13:48:33;;;;;;;4.70;3.33;;;;;;;;;;5131113;27;20035;-72
2021/12/18 13:50:59;;;;;;;5.70;3.30;;;;;;;;;;5129291;27;20389;-73
2021/12/18 13:53:25;;;;;;;7.93;3.63;;;;;;;;;;5129874;27;20495;-72
2021/12/18 13:55:57;;;;;;;7.22;4.20;;;;;;;;;;5129553;27;20049;-72
2021/12/18 13:58:34;;;;;;;7.38;4.57;;;;;;;;;;5113950;27;20015;-72
2021/12/18 14:01:03;;;;;;;6.03;4.30;;;;;;;;;;5132103;27;20034;-73
2021/12/18 14:03:36;;;;;;;8.98;4.40;;;;;;;;;;5130685;27;20027;-73
2021/12/18 14:06:06;;;;;;;6.72;4.65;;;;;;;;;;5129508;27;20026;-73
2021/12/18 14:08:35;;;;;;;7.63;4.20;;;;;;;;;;5129483;27;20370;-72
2021/12/18 14:11:02;;;;;;;9.57;5.47;;;;;;;;;;5129759;27;20029;-73
2021/12/18 14:13:29;;;;;;;9.68;4.47;;;;;;;;;;5129514;27;20060;-72
2021/12/18 14:16:05;;;;;;;8.45;4.18;;;;;;;;;;5132400;27;20019;-72
2021/12/18 14:18:36;;;;;;;11.00;4.80;;;;;;;;;;5130793;27;20034;-72
2021/12/18 14:21:03;;;;;;;11.40;4.75;;;;;;;;;;5110858;27;20027;-72
2021/12/18 14:23:39;;;;;;;11.68;5.22;;;;;;;;;;5129305;27;20019;-73
2021/12/18 14:26:20;;;;;;;9.32;5.32;;;;;;;;;;5130912;27;20029;-72
2021/12/18 14:28:47;;;;;;;13.52;5.38;;;;;;;;;;5129212;28;20035;-73
2021/12/18 14:31:43;;;;;;;6.20;4.93;;;;;;;;;;5130508;27;20027;-73
2021/12/18 14:34:11;;;;;;;11.80;5.72;;;;;;;;;;5116332;28;20038;-72
2021/12/18 14:36:38;;;;;;;8.40;4.65;;;;;;;;;;5131455;28;20396;-72
2021/12/18 14:39:04;;;;;;;10.15;5.00;;;;;;;;;;5129065;28;20019;-72
2021/12/18 14:41:32;;;;;;;8.88;4.80;;;;;;;;;;5110875;28;20031;-73
2021/12/18 14:44:08;;;;;;;14.27;5.47;;;;;;;;;;5128883;28;20512;-73
2021/12/18 14:46:34;;;;;;;18.40;5.35;;;;;;;;;;5129366;28;20027;-73
2021/12/18 14:49:11;;;;;;;9.73;5.43;;;;;;;;;;5131664;27;20031;-73
2021/12/18 14:51:37;;;;;;;11.77;5.78;;;;;;;;;;5135459;27;20460;-73
2021/12/18 14:54:04;;;;;;;10.00;5.63;;;;;;;;;;5133063;27;20023;-73
2021/12/18 14:56:31;;;;;;;8.73;5.55;;;;;;;;;;5132971;27;20027;-73
2021/12/18 14:58:57;;;;;;;11.32;6.18;;;;;;;;;;5133054;27;20063;-72
2021/12/18 15:01:24;;;;;;;11.98;7.95;;;;;;;;;;5133072;27;20038;-73
2021/12/18 15:03:51;;;;;;;14.90;8.35;;;;;;;;;;5136451;27;20037;-73
2021/12/18 15:06:20;;;;;;;13.73;8.50;;;;;;;;;;5135151;27;20056;-72
2021/12/18 15:08:58;;;;;;;15.80;9.02;;;;;;;;;;5133065;27;20019;-72
2021/12/18 15:11:44;;;;;;;16.65;9.05;;;;;;;;;;5132972;27;20023;-72
2021/12/18 15:14:15;;;;;;;17.98;9.25;;;;;;;;;;5132591;27;20095;-73
2021/12/18 15:16:41;;;;;;;14.93;7.40;;;;;;;;;;5114309;27;21429;-73
2021/12/18 15:19:09;;;;;;;11.50;6.68;;;;;;;;;;5134631;27;20028;-72
2021/12/18 15:21:37;;;;;;;18.02;8.02;;;;;;;;;;5134696;27;20056;-72
2021/12/18 15:24:04;;;;;;;22.40;10.50;;;;;;;;;;5132651;27;20429;-73
2021/12/18 15:26:31;;;;;;;22.98;9.80;;;;;;;;;;5132791;27;20018;-73
2021/12/18 15:28:58;;;;;;;17.33;8.70;;;;;;;;;;5132407;27;20018;-73